createdAt,value
2022-10-17T00:00:45.547Z,7.10
2022-10-17T00:03:34.364Z,7.60
2022-10-17T00:06:09.795Z,6.80
2022-10-17T00:08:42.885Z,6.60
2022-10-17T00:11:18.967Z,6.80
2022-10-17T00:13:52.056Z,7.40
2022-10-17T00:16:29.181Z,6.20
2022-10-17T00:19:01.337Z,6.90
2022-10-17T00:21:33.220Z,7.10
2022-10-17T00:24:05.223Z,7.60
2022-10-17T00:26:37.066Z,7.70
2022-10-17T00:29:08.892Z,7.10
2022-10-17T00:31:40.888Z,7.60
2022-10-17T00:34:12.591Z,6.10
2022-10-17T00:36:44.344Z,6.30
2022-10-17T00:39:16.084Z,6.30
2022-10-17T00:41:47.768Z,6.80
2022-10-17T00:44:54.662Z,7.30
2022-10-17T00:47:26.633Z,7.70
2022-10-17T00:49:59.617Z,7.80
2022-10-17T00:52:33.673Z,7.60
2022-10-17T00:55:10.143Z,7.50
2022-10-17T00:57:43.194Z,7.20
2022-10-17T01:00:18.444Z,7.10
2022-10-17T01:02:50.672Z,6.80
2022-10-17T01:05:23.033Z,7.20
2022-10-17T01:07:56.057Z,7.20
2022-10-17T01:10:34.443Z,7.30
2022-10-17T01:13:15.014Z,7.30
2022-10-17T01:15:58.142Z,7.60
2022-10-17T01:18:42.609Z,8.10
2022-10-17T01:21:40.409Z,7.70
2022-10-17T01:27:30.611Z,7.20
2022-10-17T01:30:50.898Z,7.00
2022-10-17T01:33:33.769Z,6.90
2022-10-17T01:36:12.621Z,6.70
2022-10-17T01:38:48.778Z,7.30
2022-10-17T01:41:28.890Z,7.60
2022-10-17T01:44:05.537Z,7.10
2022-10-17T01:46:39.914Z,7.20
2022-10-17T01:49:14.225Z,7.40
2022-10-17T01:51:50.074Z,7.70
2022-10-17T01:54:25.933Z,7.20
2022-10-17T01:57:01.404Z,6.80
2022-10-17T01:59:41.632Z,6.40
2022-10-17T02:02:15.939Z,7.10
2022-10-17T02:04:49.664Z,6.90
2022-10-17T02:07:21.408Z,7.30
2022-10-17T02:09:53.412Z,7.60
2022-10-17T02:12:36.428Z,6.80
2022-10-17T02:15:17.985Z,7.20
2022-10-17T02:17:59.610Z,7.40
2022-10-17T02:20:38.710Z,7.70
2022-10-17T02:23:15.025Z,7.10
2022-10-17T02:25:55.237Z,7.30
2022-10-17T02:28:36.386Z,6.90
2022-10-17T02:31:14.869Z,6.70
2022-10-17T02:33:52.129Z,7.30
2022-10-17T02:36:27.535Z,7.20
2022-10-17T02:39:00.369Z,7.50
2022-10-17T02:41:34.931Z,7.60
2022-10-17T02:44:08.283Z,7.60
2022-10-17T02:46:43.535Z,8.10
2022-10-17T02:49:22.729Z,7.30
2022-10-17T02:52:02.204Z,6.70
2022-10-17T02:54:40.476Z,7.20
2022-10-17T02:57:19.733Z,7.20
2022-10-17T02:59:52.398Z,7.00
2022-10-17T03:02:24.104Z,6.70
2022-10-17T03:04:56.471Z,7.40
2022-10-17T03:07:28.257Z,7.50
2022-10-17T03:10:00.974Z,7.70
2022-10-17T03:12:33.781Z,7.90
2022-10-17T03:15:06.060Z,7.90
2022-10-17T03:17:39.210Z,8.20
2022-10-17T03:20:13.528Z,7.40
2022-10-17T03:22:45.340Z,7.30
2022-10-17T03:25:17.338Z,7.00
2022-10-17T03:27:49.184Z,7.30
2022-10-17T03:30:21.058Z,7.00
2022-10-17T03:32:53.526Z,7.80
2022-10-17T03:35:25.598Z,7.90
2022-10-17T03:37:58.958Z,8.30
2022-10-17T03:40:31.268Z,7.50
2022-10-17T03:43:03.044Z,8.10
2022-10-17T03:45:34.833Z,8.10
2022-10-17T03:48:07.624Z,8.20
2022-10-17T03:50:39.307Z,7.50
2022-10-17T03:53:12.122Z,7.80
2022-10-17T03:55:43.939Z,7.10
2022-10-17T03:58:15.653Z,7.90
2022-10-17T04:00:47.471Z,7.70
2022-10-17T04:03:19.265Z,8.40
2022-10-17T04:05:52.209Z,8.40
2022-10-17T04:08:24.155Z,8.50
2022-10-17T04:11:09.008Z,8.50
2022-10-17T04:13:40.913Z,7.90
2022-10-17T04:16:16.664Z,7.80
2022-10-17T04:21:35.065Z,7.90
2022-10-17T04:24:13.191Z,7.80
2022-10-17T04:27:00.243Z,8.20
2022-10-17T04:29:34.182Z,7.60
2022-10-17T04:32:12.234Z,8.70
2022-10-17T04:34:51.506Z,8.90
2022-10-17T04:37:24.762Z,8.80
2022-10-17T04:39:57.701Z,8.30
2022-10-17T04:42:31.410Z,9.00
2022-10-17T04:45:03.374Z,8.30
2022-10-17T04:47:35.487Z,7.90
2022-10-17T04:50:08.402Z,8.00
2022-10-17T04:52:40.443Z,7.60
2022-10-17T04:55:13.293Z,7.60
2022-10-17T04:57:45.317Z,7.70
2022-10-17T05:00:22.503Z,7.50
2022-10-17T05:03:03.006Z,7.80
2022-10-17T05:05:35.251Z,7.70
2022-10-17T05:08:07.596Z,8.30
2022-10-17T05:10:46.168Z,8.60
2022-10-17T05:13:18.771Z,8.60
2022-10-17T05:15:50.872Z,8.80
2022-10-17T05:18:25.385Z,8.10
2022-10-17T05:20:57.703Z,7.60
2022-10-17T05:23:32.091Z,7.80
2022-10-17T05:26:04.826Z,7.60
2022-10-17T05:28:37.326Z,7.40
2022-10-17T05:31:11.232Z,7.80
2022-10-17T05:33:45.001Z,7.60
2022-10-17T05:36:17.283Z,8.60
2022-10-17T05:38:53.178Z,8.50
2022-10-17T05:41:24.949Z,8.70
2022-10-17T05:43:59.417Z,8.70
2022-10-17T05:46:42.650Z,7.60
2022-10-17T05:49:32.198Z,7.50
2022-10-17T05:52:05.877Z,7.40
2022-10-17T05:54:42.151Z,6.60
2022-10-17T05:57:13.931Z,8.50
2022-10-17T05:59:46.109Z,8.10
2022-10-17T06:02:21.842Z,6.70
2022-10-17T06:04:54.013Z,7.70
2022-10-17T06:07:27.955Z,8.30
2022-10-17T06:09:59.841Z,7.90
2022-10-17T06:12:31.786Z,8.50
2022-10-17T06:15:04.239Z,7.80
2022-10-17T06:17:36.180Z,7.70
2022-10-17T06:20:09.578Z,7.00
2022-10-17T06:22:41.641Z,6.70
2022-10-17T06:25:18.905Z,7.50
2022-10-17T06:27:50.788Z,7.40
2022-10-17T06:30:23.124Z,7.10
2022-10-17T06:32:55.678Z,7.50
2022-10-17T06:35:27.611Z,7.90
2022-10-17T06:37:59.602Z,7.90
2022-10-17T06:40:31.633Z,7.80
2022-10-17T06:43:04.335Z,7.90
2022-10-17T06:46:02.117Z,7.70
2022-10-17T06:48:42.454Z,7.70
2022-10-17T06:51:23.201Z,6.90
2022-10-17T06:54:00.024Z,6.10
2022-10-17T06:56:50.560Z,6.10
2022-10-17T06:59:35.042Z,7.60
2022-10-17T07:02:15.251Z,6.60
2022-10-17T07:04:49.650Z,7.50
2022-10-17T07:07:21.549Z,7.50
2022-10-17T07:09:54.351Z,7.40
2022-10-17T07:12:26.383Z,7.40
2022-10-17T07:14:58.179Z,7.10
2022-10-17T07:17:30.439Z,7.70
2022-10-17T07:20:02.504Z,7.30
2022-10-17T07:22:37.221Z,7.40
2022-10-17T07:25:11.469Z,7.40
2022-10-17T07:27:55.738Z,7.10
2022-10-17T07:30:28.419Z,7.30
2022-10-17T07:33:14.204Z,7.50
2022-10-17T07:35:46.116Z,7.70
2022-10-17T07:38:18.128Z,6.80
2022-10-17T07:40:56.661Z,7.60
2022-10-17T07:43:29.446Z,7.40
2022-10-17T07:46:01.951Z,6.70
2022-10-17T07:48:34.769Z,6.80
2022-10-17T07:51:08.207Z,7.60
2022-10-17T07:53:42.754Z,6.70
2022-10-17T07:56:16.902Z,7.60
2022-10-17T07:58:49.253Z,7.60
2022-10-17T08:01:21.501Z,7.30
2022-10-17T08:03:53.821Z,7.50
2022-10-17T08:06:26.059Z,7.50
2022-10-17T08:08:59.691Z,7.20
2022-10-17T08:11:31.548Z,7.20
2022-10-17T08:14:03.240Z,7.80
2022-10-17T08:16:35.208Z,7.30
2022-10-17T08:21:46.965Z,7.90
2022-10-17T08:24:18.695Z,7.60
2022-10-17T08:26:51.878Z,7.00
2022-10-17T08:29:24.191Z,7.00
2022-10-17T08:32:00.904Z,7.30
2022-10-17T08:34:33.554Z,7.40
2022-10-17T08:37:05.420Z,7.20
2022-10-17T08:39:37.206Z,7.30
2022-10-17T08:42:46.202Z,7.00
2022-10-17T08:45:26.134Z,7.50
2022-10-17T08:48:01.459Z,6.90
2022-10-17T08:50:40.061Z,7.30
2022-10-17T08:53:21.055Z,7.90
2022-10-17T08:55:54.950Z,8.10
2022-10-17T08:58:30.109Z,7.80
2022-10-17T09:01:12.853Z,6.70
2022-10-17T09:03:54.770Z,7.10
2022-10-17T09:06:30.896Z,7.20
2022-10-17T09:09:22.038Z,7.60
2022-10-17T09:12:11.113Z,7.90
2022-10-17T09:15:13.673Z,7.40
2022-10-17T09:17:54.663Z,7.00
2022-10-17T09:20:30.152Z,7.10
2022-10-17T09:23:06.989Z,7.80
2022-10-17T09:25:46.997Z,7.10
2022-10-17T09:28:23.595Z,7.60
2022-10-17T09:31:01.846Z,7.30
2022-10-17T09:33:53.214Z,7.90
2022-10-17T09:36:29.258Z,7.60
2022-10-17T09:39:01.954Z,6.40
2022-10-17T09:41:46.784Z,7.00
2022-10-17T09:44:25.006Z,6.60
2022-10-17T09:47:21.506Z,7.30
2022-10-17T09:49:54.017Z,7.50
2022-10-17T09:52:42.045Z,7.50
2022-10-17T09:55:22.374Z,7.30
2022-10-17T09:58:01.947Z,7.10
2022-10-17T10:00:36.666Z,7.60
2022-10-17T10:03:20.710Z,8.00
2022-10-17T10:06:04.588Z,6.40
2022-10-17T10:08:38.138Z,7.60
2022-10-17T10:11:14.057Z,8.30
2022-10-17T10:13:49.633Z,7.40
2022-10-17T10:16:26.695Z,7.90
2022-10-17T10:18:58.859Z,7.10
2022-10-17T10:21:30.839Z,7.30
2022-10-17T10:24:15.059Z,6.70
2022-10-17T10:26:48.992Z,7.00
2022-10-17T10:29:31.166Z,7.20
2022-10-17T10:32:13.645Z,6.60
2022-10-17T10:34:51.505Z,7.10
2022-10-17T10:37:26.366Z,6.80
2022-10-17T10:40:00.504Z,6.80
2022-10-17T10:42:36.711Z,6.40
2022-10-17T10:45:42.765Z,7.20
2022-10-17T10:48:22.932Z,8.00
2022-10-17T10:50:58.286Z,7.00
2022-10-17T10:53:39.364Z,6.60
2022-10-17T10:56:18.269Z,6.60
2022-10-17T10:58:59.845Z,7.10
2022-10-17T11:01:36.778Z,6.40
2022-10-17T11:04:24.578Z,6.90
2022-10-17T11:07:03.342Z,6.40
2022-10-17T11:09:47.626Z,6.80
2022-10-17T11:12:26.675Z,6.30
2022-10-17T11:15:04.424Z,6.20
2022-10-17T11:17:41.650Z,6.40
2022-10-17T11:20:22.483Z,6.20
2022-10-17T11:23:01.572Z,6.70
2022-10-17T11:25:37.706Z,6.80
2022-10-17T11:28:16.159Z,6.30
2022-10-17T11:31:03.360Z,6.60
2022-10-17T11:33:47.234Z,6.70
2022-10-17T11:36:22.601Z,6.80
2022-10-17T11:39:00.017Z,6.80
2022-10-17T11:41:37.320Z,6.60
2022-10-17T11:44:19.523Z,7.10
2022-10-17T11:46:56.804Z,7.40
2022-10-17T11:49:38.428Z,6.70
2022-10-17T11:52:51.236Z,6.90
2022-10-17T11:55:22.288Z,7.40
2022-10-17T11:58:09.797Z,7.00
2022-10-17T12:00:54.494Z,6.30
2022-10-17T12:03:47.511Z,6.70
2022-10-17T12:06:31.159Z,6.90
2022-10-17T12:09:11.574Z,7.20
2022-10-17T12:11:54.284Z,6.80
2022-10-17T12:14:44.177Z,6.60
2022-10-17T12:17:33.024Z,7.10
2022-10-17T12:20:30.591Z,7.30
2022-10-17T12:23:18.549Z,6.90
2022-10-17T12:25:58.200Z,6.80
2022-10-17T12:28:42.639Z,5.90
2022-10-17T12:31:32.532Z,6.70
2022-10-17T12:34:06.763Z,6.80
2022-10-17T12:36:42.280Z,6.80
2022-10-17T12:39:53.472Z,6.90
2022-10-17T12:42:49.195Z,17.90
2022-10-17T12:45:48.917Z,9.40
2022-10-17T12:48:55.386Z,6.90
2022-10-17T12:51:35.871Z,6.60
2022-10-17T12:54:15.218Z,7.00
2022-10-17T12:56:50.401Z,6.60
2022-10-17T12:59:26.684Z,7.30
2022-10-17T13:02:01.795Z,6.60
2022-10-17T13:04:38.931Z,7.00
2022-10-17T13:07:20.945Z,6.70
2022-10-17T13:09:53.433Z,7.00
2022-10-17T13:12:28.625Z,7.20
2022-10-17T13:15:01.000Z,6.40
2022-10-17T13:17:33.333Z,6.70
2022-10-17T13:20:05.464Z,6.50
2022-10-17T13:22:46.024Z,7.10
2022-10-17T13:25:20.001Z,6.30
2022-10-17T13:27:54.112Z,6.70
2022-10-17T13:30:31.239Z,7.10
2022-10-17T13:33:05.243Z,6.90
2022-10-17T13:35:59.364Z,7.80
2022-10-17T13:38:35.633Z,6.30
2022-10-17T13:44:13.848Z,6.40
2022-10-17T13:46:46.418Z,6.10
2022-10-17T13:49:26.203Z,6.90
2022-10-17T13:52:01.580Z,6.40
2022-10-17T13:54:40.337Z,6.60
2022-10-17T13:57:22.263Z,7.20
2022-10-17T13:59:58.132Z,7.10
2022-10-17T14:02:31.831Z,6.80
2022-10-17T14:05:22.988Z,7.10
2022-10-17T14:08:16.703Z,6.90
2022-10-17T14:10:48.666Z,7.00
2022-10-17T14:13:24.825Z,7.60
2022-10-17T14:16:01.551Z,7.40
2022-10-17T14:18:36.878Z,7.00
2022-10-17T14:24:27.416Z,7.80
2022-10-17T14:27:00.944Z,6.80
2022-10-17T14:29:50.670Z,6.90
2022-10-17T14:32:23.581Z,6.70
2022-10-17T14:35:10.774Z,7.20
2022-10-17T14:37:52.138Z,7.10
2022-10-17T14:40:27.192Z,7.50
2022-10-17T14:43:00.353Z,7.00
2022-10-17T14:45:34.874Z,7.20
2022-10-17T14:48:13.015Z,21.00
2022-10-17T14:51:05.024Z,11.50
2022-10-17T14:53:37.173Z,9.00
2022-10-17T14:56:25.668Z,8.60
2022-10-17T14:58:57.603Z,9.60
2022-10-17T15:01:29.261Z,8.70
2022-10-17T15:04:00.959Z,8.30
2022-10-17T15:06:34.509Z,8.60
2022-10-17T15:09:06.596Z,9.10
2022-10-17T15:11:38.545Z,8.00
2022-10-17T15:14:10.204Z,8.90
2022-10-17T15:16:41.889Z,9.00
2022-10-17T15:19:15.283Z,8.00
2022-10-17T15:21:47.463Z,9.10
2022-10-17T15:24:19.791Z,10.30
2022-10-17T15:26:51.502Z,16.40
2022-10-17T15:29:23.215Z,22.40
2022-10-17T15:31:54.874Z,26.30
2022-10-17T15:34:26.642Z,26.10
2022-10-17T15:36:58.869Z,24.80
2022-10-17T15:39:30.557Z,24.00
2022-10-17T15:42:02.275Z,24.10
2022-10-17T15:44:34.001Z,19.40
2022-10-17T15:47:06.766Z,17.50
2022-10-17T15:49:38.479Z,16.60
2022-10-17T15:52:11.302Z,14.70
2022-10-17T15:54:42.951Z,15.30
2022-10-17T15:57:20.752Z,14.70
2022-10-17T15:59:53.640Z,15.70
2022-10-17T16:02:26.367Z,14.40
2022-10-17T16:04:58.014Z,13.80
2022-10-17T16:07:29.876Z,15.90
2022-10-17T16:10:01.878Z,15.40
2022-10-17T16:12:38.006Z,14.70
2022-10-17T16:15:14.245Z,14.50
2022-10-17T16:17:46.041Z,14.90
2022-10-17T16:20:17.945Z,15.20
2022-10-17T16:22:50.178Z,15.30
2022-10-17T16:25:24.610Z,14.90
2022-10-17T16:27:58.099Z,15.00
2022-10-17T16:30:32.548Z,15.70
2022-10-17T16:33:04.362Z,15.50
2022-10-17T16:35:37.636Z,16.20
2022-10-17T16:38:10.203Z,16.40
2022-10-17T16:40:42.252Z,14.40
2022-10-17T16:43:15.132Z,14.10
2022-10-17T16:45:46.815Z,13.50
2022-10-17T16:48:18.535Z,12.00
2022-10-17T16:50:50.301Z,12.40
2022-10-17T16:53:21.990Z,13.90
2022-10-17T16:56:02.873Z,13.90
2022-10-17T16:58:34.611Z,14.80
2022-10-17T17:01:09.639Z,14.20
2022-10-17T17:06:31.791Z,14.40
2022-10-17T17:09:03.471Z,14.60
2022-10-17T17:11:35.123Z,14.30
2022-10-17T17:14:07.999Z,14.40
2022-10-17T17:16:44.446Z,15.40
2022-10-17T17:19:17.929Z,16.50
2022-10-17T17:21:50.931Z,18.60
2022-10-17T17:24:23.475Z,16.70
2022-10-17T17:26:57.541Z,17.00
2022-10-17T17:29:29.383Z,16.10
2022-10-17T17:32:01.135Z,15.40
2022-10-17T17:34:36.429Z,15.10
2022-10-17T17:37:08.159Z,13.70
2022-10-17T17:39:40.229Z,14.40
2022-10-17T17:42:12.017Z,13.30
2022-10-17T17:44:43.669Z,12.10
2022-10-17T17:47:15.450Z,12.40
2022-10-17T17:49:47.102Z,12.80
2022-10-17T17:52:18.775Z,12.30
2022-10-17T17:54:51.965Z,12.90
2022-10-17T17:57:23.807Z,12.40
2022-10-17T17:59:55.586Z,12.20
2022-10-17T18:02:27.359Z,12.70
2022-10-17T18:04:59.028Z,13.40
2022-10-17T18:07:31.120Z,13.50
2022-10-17T18:10:02.900Z,11.90
2022-10-17T18:12:35.621Z,10.60
2022-10-17T18:15:11.760Z,10.60
2022-10-17T18:17:43.842Z,10.30
2022-10-17T18:20:16.285Z,10.10
2022-10-17T18:22:48.012Z,10.30
2022-10-17T18:25:19.800Z,11.60
2022-10-17T18:27:51.490Z,11.00
2022-10-17T18:30:25.917Z,11.30
2022-10-17T18:32:59.634Z,12.10
2022-10-17T18:35:31.430Z,11.00
2022-10-17T18:38:03.136Z,12.20
2022-10-17T18:40:34.968Z,11.10
2022-10-17T18:43:06.744Z,9.90
2022-10-17T18:45:40.354Z,9.90
2022-10-17T18:48:12.058Z,9.00
2022-10-17T18:50:43.755Z,9.80
2022-10-17T18:53:15.402Z,11.00
2022-10-17T18:58:24.575Z,10.60
2022-10-17T19:00:56.259Z,10.80
2022-10-17T19:03:27.934Z,10.30
2022-10-17T19:06:03.503Z,11.20
2022-10-17T19:08:35.318Z,10.60
2022-10-17T19:11:09.676Z,9.70
2022-10-17T19:13:41.731Z,9.80
2022-10-17T19:16:14.845Z,9.10
2022-10-17T19:18:49.754Z,8.60
2022-10-17T19:21:22.418Z,10.10
2022-10-17T19:23:56.966Z,10.80
2022-10-17T19:26:31.440Z,10.10
2022-10-17T19:29:03.701Z,10.00
2022-10-17T19:31:36.483Z,11.10
2022-10-17T19:34:08.331Z,10.60
2022-10-17T19:36:41.682Z,10.20
2022-10-17T19:39:15.990Z,10.70
2022-10-17T19:41:49.024Z,11.70
2022-10-17T19:44:20.973Z,11.60
2022-10-17T19:46:52.712Z,10.40
2022-10-17T19:49:24.788Z,9.60
2022-10-17T19:51:56.617Z,9.80
2022-10-17T19:54:28.297Z,10.10
2022-10-17T19:57:00.086Z,9.80
2022-10-17T19:59:31.825Z,10.10
2022-10-17T20:02:03.748Z,10.00
2022-10-17T20:04:35.567Z,9.60
2022-10-17T20:07:07.286Z,10.10
2022-10-17T20:09:39.035Z,8.60
2022-10-17T20:12:10.703Z,8.70
2022-10-17T20:14:42.444Z,8.90
2022-10-17T20:17:14.097Z,8.80
2022-10-17T20:19:46.159Z,9.30
2022-10-17T20:22:17.838Z,9.30
2022-10-17T20:24:50.018Z,9.20
2022-10-17T20:27:26.857Z,9.10
2022-10-17T20:30:01.931Z,10.10
2022-10-17T20:32:39.419Z,9.90
2022-10-17T20:35:11.906Z,9.60
2022-10-17T20:37:43.932Z,9.70
2022-10-17T20:40:34.292Z,8.90
2022-10-17T20:43:07.833Z,8.80
2022-10-17T20:45:51.766Z,8.10
2022-10-17T20:48:24.357Z,9.10
2022-10-17T20:50:56.225Z,8.90
2022-10-17T20:53:43.335Z,8.90
2022-10-17T20:56:22.264Z,10.00
2022-10-17T20:58:55.624Z,9.20
2022-10-17T21:01:28.439Z,9.00
2022-10-17T21:04:15.891Z,9.10
2022-10-17T21:06:53.560Z,8.70
2022-10-17T21:09:25.663Z,8.80
2022-10-17T21:11:57.397Z,8.10
2022-10-17T21:14:29.084Z,8.30
2022-10-17T21:17:04.809Z,8.10
2022-10-17T21:19:37.027Z,8.90
2022-10-17T21:22:08.739Z,9.00
2022-10-17T21:24:40.482Z,9.00
2022-10-17T21:27:17.880Z,9.00
2022-10-17T21:29:50.257Z,9.10
2022-10-17T21:32:47.240Z,10.10
2022-10-17T21:35:13.645Z,8.00
2022-10-17T21:37:45.381Z,7.70
2022-10-17T21:40:17.877Z,7.60
2022-10-17T21:42:49.513Z,7.70
2022-10-17T21:45:25.835Z,8.40
2022-10-17T21:48:13.580Z,9.00
2022-10-17T21:50:45.541Z,8.60
2022-10-17T21:53:17.301Z,8.50
2022-10-17T21:55:48.943Z,8.90
2022-10-17T21:58:21.131Z,8.90
2022-10-17T22:00:52.813Z,8.90
2022-10-17T22:03:25.021Z,8.40
2022-10-17T22:06:07.048Z,8.60
2022-10-17T22:08:49.533Z,8.50
2022-10-17T22:11:23.163Z,8.10
2022-10-17T22:13:58.378Z,8.10
2022-10-17T22:16:30.528Z,8.20
2022-10-17T22:19:06.410Z,8.00
2022-10-17T22:21:39.266Z,7.90
2022-10-17T22:24:14.162Z,8.50
2022-10-17T22:26:47.397Z,8.40
2022-10-17T22:29:19.178Z,8.80
2022-10-17T22:31:50.887Z,8.20
2022-10-17T22:34:22.589Z,8.20
2022-10-17T22:36:54.706Z,7.60
2022-10-17T22:39:26.587Z,7.20
2022-10-17T22:41:58.436Z,7.40
2022-10-17T22:44:30.121Z,7.40
2022-10-17T22:47:01.789Z,7.60
2022-10-17T22:49:34.737Z,8.50
2022-10-17T22:52:06.688Z,8.20
2022-10-17T22:54:38.357Z,8.00
2022-10-17T22:57:10.086Z,8.10
2022-10-17T22:59:41.803Z,7.60
2022-10-17T23:02:13.469Z,7.60
2022-10-17T23:04:46.390Z,8.10
2022-10-17T23:07:18.236Z,7.20
2022-10-17T23:09:49.939Z,6.90
2022-10-17T23:12:21.637Z,7.10
2022-10-17T23:14:53.416Z,7.00
2022-10-17T23:17:25.095Z,7.20
2022-10-17T23:19:57.831Z,7.50
2022-10-17T23:22:29.867Z,8.60
2022-10-17T23:25:01.707Z,7.90
2022-10-17T23:27:34.867Z,7.70
2022-10-17T23:30:08.146Z,7.40
2022-10-17T23:32:39.843Z,7.60
2022-10-17T23:35:12.319Z,7.60
2022-10-17T23:37:44.130Z,7.30
2022-10-17T23:40:16.463Z,7.40
2022-10-17T23:42:48.111Z,7.30
2022-10-17T23:45:20.838Z,7.50
2022-10-17T23:47:52.747Z,8.20
2022-10-17T23:50:24.529Z,7.60
2022-10-17T23:52:56.166Z,7.80
2022-10-17T23:55:27.804Z,7.50
2022-10-17T23:57:59.598Z,7.60
